Latest Coastal Weather Observations for Mornington Island Airport

IDQ60701

Issued at 4:43 pm EST Wednesday 8 February 2023 (issued every 10 minutes, with the page automatically refreshed every 10 minutes)

About coastal observations | Map of coastal stations | Coastal observations for QLD | Marine services | Other Formats
Station Details ID: 029182 Name: MORNINGTON ISLAND AIRPORT Lat: -16.66 Lon: 139.17 Height: 9.52 m
Data from the previous 72 hours. | See also: Recent months at Mornington Island Airport
Date/Time
EST
Wind Sea
Height
m
Swell Vis
km
Cloud Weather Temp
°C
Press
MSL
hPa
Rain since
9am
mm
Dir  Spd
kts
Gust
kts
Height
m
Period
s
Dir
08/04:30pm NNW 10 13 - - - - 10 Clear - 31.6 1001.8 1.6
08/04:02pm N 7 11 - - - - 10 Partly cloudy - 30.7 1002.1 1.6
08/04:00pm N 6 10 - - - - 10 Partly cloudy - 30.8 1002.1 1.6
08/03:41pm NE 7 10 - - - - 5 Partly cloudy - 30.0 1002.4 1.0
08/03:30pm NNW 11 15 - - - - 10 Partly cloudy - 32.6 1002.4 0.0
08/03:00pm NNW 11 16 - - - - 10 Mostly cloudy - 32.4 1002.6 0.0
08/02:30pm NNW 11 13 - - - - 10 Partly cloudy - 31.4 1003.0 0.0
08/02:00pm NE 7 11 - - - - 10 Partly cloudy - 31.6 1003.3 0.0
08/01:30pm SSE 7 11 - - - - 10 Partly cloudy - 31.6 1003.8 0.0
08/01:00pm SSE 7 10 - - - - 10 - - 32.6 1004.2 0.0
08/12:30pm ESE 8 11 - - - - 10 Partly cloudy - 32.6 1004.6 0.0
08/12:00pm SE 8 13 - - - - 10 Mostly clear - 32.4 1005.0 0.0
08/11:30am SE 7 10 - - - - 10 Partly cloudy - 31.7 1005.4 0.0
08/11:00am SE 7 11 - - - - 10 - - 31.2 1005.6 0.0
08/10:30am SE 7 10 - - - - 10 - - 31.2 1005.8 0.0
08/10:00am SE 6 10 - - - - 10 - - 30.5 1005.8 0.0
08/09:30am SE 6 10 - - - - 10 - - 30.2 1006.0 0.0
08/09:00am S 5 8 - - - - 10 - - 29.9 1005.9 0.0
08/08:30am S 4 7 - - - - 10 - - 28.8 1005.9 0.0
08/08:00am S 5 6 - - - - 10 - - 28.2 1005.7 0.0
08/07:30am WSW 4 6 - - - - 10 - - 27.3 1005.4 0.0
08/07:00am WSW 4 5 - - - - 10 - - 26.9 1004.9 0.0
08/06:30am WSW 3 4 - - - - 10 - - 27.0 1004.5 0.0
08/06:00am WSW 4 5 - - - - 10 - - 27.3 1004.2 0.0
08/05:30am NW 3 5 - - - - 10 - - 26.4 1004.0 0.0
08/05:00am CALM 0 0 - - - - 10 - - 26.2 1003.7 0.0
08/04:30am CALM 0 0 - - - - 10 - - 26.1 1003.6 0.0
08/04:00am CALM 0 0 - - - - 10 Partly cloudy - 26.2 1003.7 0.0
08/03:30am CALM 0 0 - - - - 10 - - 26.5 1003.9 0.0
08/03:00am CALM 0 0 - - - - 10 Cloudy - 26.7 1003.9 0.0
08/02:30am CALM 0 0 - - - - 10 - - 26.5 1004.1 0.0
08/02:00am CALM 0 0 - - - - 10 - - 26.3 1004.5 0.0
08/01:30am CALM 0 0 - - - - 10 - - 26.7 1005.2 0.0
08/01:00am CALM 0 0 - - - - 10 - - 26.8 1005.5 0.0
08/12:30am CALM 0 0 - - - - 10 - - 26.9 1005.8 0.0
08/12:00am CALM 0 0 - - - - 10 - - 27.0 1006.3 0.0
 
Date/Time
EST
Wind Sea
Height
m
Swell Vis
km
Cloud Weather Temp
°C
Press
MSL
hPa
Rain since
9am
mm
Dir  Spd
kts
Gust
kts
Height
m
Period
s
Dir
07/11:30pm CALM 0 0 - - - - 10 - - 27.3 1006.8 0.0
07/11:00pm CALM 0 0 - - - - 10 - - 27.3 1007.1 0.0
07/10:30pm CALM 0 0 - - - - 10 - - 27.7 1007.0 0.0
07/10:00pm CALM 0 0 - - - - 10 - - 27.5 1006.6 0.0
07/09:30pm CALM 0 0 - - - - 10 - - 27.9 1006.4 0.0
07/09:00pm CALM 0 0 - - - - 10 - - 27.9 1006.0 0.0
07/08:30pm CALM 0 0 - - - - 10 - - 28.0 1005.4 0.0
07/08:00pm CALM 0 0 - - - - 10 - - 28.3 1005.3 0.0
07/07:30pm CALM 0 0 - - - - 10 - - 28.9 1004.6 0.0
07/07:00pm CALM 0 0 - - - - 10 - - 29.0 1004.3 0.0
07/06:30pm CALM 0 0 - - - - 10 - - 29.4 1004.2 0.0
07/06:00pm NW 5 5 - - - - 10 Mostly cloudy - 29.6 1004.0 0.0
07/05:30pm NW 3 4 - - - - 10 - - 29.8 1003.9 0.0
07/05:00pm NW 5 7 - - - - 10 - - 30.0 1003.9 0.0
07/04:30pm NW 5 7 - - - - 10 - - 30.1 1004.0 0.0
07/04:00pm NW 6 8 - - - - 10 - - 30.2 1004.2 0.0
07/03:30pm WNW 6 8 - - - - 10 Partly cloudy - 30.6 1004.3 0.0
07/03:00pm W 7 9 - - - - 10 Mostly cloudy - 30.9 1004.7 0.0
07/02:30pm WNW 8 10 - - - - 10 - - 31.1 1005.0 0.0
07/02:00pm NW 7 10 - - - - 10 - - 31.3 1005.2 0.0
07/01:30pm NW 9 12 - - - - 10 - - 30.7 1005.5 0.0
07/01:00pm NNW 10 13 - - - - 10 Partly cloudy - 30.4 1006.0 0.0
07/12:30pm SE 6 8 - - - - 10 Partly cloudy - 30.8 1006.3 0.0
07/12:00pm SSE 5 7 - - - - 10 Cloudy - 30.7 1006.7 0.0
07/11:30am SE 6 10 - - - - 10 Partly cloudy - 30.3 1007.0 0.0
07/11:00am SSE 9 14 - - - - 10 Partly cloudy - 29.8 1007.2 0.0
07/10:30am E 5 8 - - - - 10 Partly cloudy - 31.1 1007.5 0.0
07/10:00am ENE 4 5 - - - - 10 Cloudy - 30.0 1007.8 0.0
07/09:30am NNW 3 4 - - - - 10 Cloudy - 29.4 1007.7 0.0
07/09:00am CALM 0 0 - - - - 10 Mostly cloudy - 28.8 1007.5 0.0
07/08:30am CALM 0 0 - - - - 10 Partly cloudy - 29.1 1007.3 0.0
07/08:00am CALM 0 0 - - - - 10 Partly cloudy - 26.5 1007.3 0.0
07/07:30am CALM 0 0 - - - - 10 Partly cloudy - 25.4 1007.3 0.0
07/07:00am CALM 0 0 - - - - 10 Partly cloudy - 25.1 1006.7 0.0
07/06:30am CALM 0 0 - - - - 10 - - 24.8 1006.1 0.0
07/06:00am CALM 0 0 - - - - 10 - - 24.8 1006.0 0.0
07/05:30am CALM 0 0 - - - - 10 - - 24.6 1005.6 0.0
07/05:00am CALM 0 0 - - - - 10 - - 24.6 1005.5 0.0
07/04:30am NNW 3 4 - - - - 10 - - 24.4 1005.4 0.0
07/04:00am CALM 0 0 - - - - 10 - - 24.5 1005.0 0.0
07/03:30am CALM 0 0 - - - - 10 - - 24.4 1004.9 0.0
07/03:00am CALM 0 0 - - - - 10 - - 24.5 1005.0 0.0
07/02:30am NNW 3 4 - - - - 10 - - 24.4 1005.6 0.0
07/02:00am NNW 3 3 - - - - 10 - - 24.5 1005.8 0.0
07/01:30am NNW 3 3 - - - - 10 - - 24.6 1006.3 0.0
07/01:00am NNW 3 4 - - - - 10 - - 24.7 1006.6 0.0
07/12:30am NNW 5 6 - - - - 10 - - 25.2 1006.6 0.0
07/12:00am NNW 5 6 - - - - 10 - - 25.4 1006.8 0.0
 
Date/Time
EST
Wind Sea
Height
m
Swell Vis
km
Cloud Weather Temp
°C
Press
MSL
hPa
Rain since
9am
mm
Dir  Spd
kts
Gust
kts
Height
m
Period
s
Dir
06/11:30pm CALM 0 0 - - - - 10 - - 25.4 1007.0 0.0
06/11:00pm CALM 0 0 - - - - 10 - - 25.7 1007.0 0.0
06/10:30pm CALM 0 0 - - - - 10 - - 25.6 1006.8 0.0
06/10:00pm CALM 0 0 - - - - 10 - - 26.2 1006.7 0.0
06/09:30pm CALM 0 0 - - - - 10 - - 26.5 1006.7 0.0
06/09:00pm NNW 4 5 - - - - 10 - - 27.1 1006.7 0.0
06/08:30pm NNW 3 4 - - - - 10 - - 27.5 1006.6 0.0
06/08:00pm NNW 3 4 - - - - 10 - - 27.8 1006.2 0.0
06/07:30pm NNW 3 5 - - - - 10 - - 28.4 1005.7 0.0
06/07:00pm N 5 7 - - - - 10 - - 29.3 1005.4 0.0
06/06:30pm N 7 9 - - - - 10 - - 29.9 1005.6 0.0
06/06:00pm N 8 10 - - - - 10 - - 30.2 1005.6 0.0
06/05:30pm N 9 10 - - - - 10 - - 30.4 1005.5 0.0
06/05:00pm NNW 9 12 - - - - 10 Partly cloudy - 30.8 1005.3 0.0
06/04:30pm NNW 9 12 - - - - 10 Cloudy - 30.7 1005.4 0.0
06/04:00pm NW 8 11 - - - - 10 Partly cloudy - 30.4 1005.6 0.0
06/03:30pm NNW 7 11 - - - - 10 Cloudy - 30.5 1005.7 0.0
06/03:00pm NNW 9 13 - - - - 10 Cloudy - 30.7 1005.8 0.0
06/02:30pm N 8 13 - - - - 10 Cloudy - 30.9 1006.0 0.0
06/02:00pm N 10 15 - - - - 10 Partly cloudy - 31.3 1006.2 0.0
06/01:30pm NNW 11 15 - - - - 10 Partly cloudy - 31.2 1006.4 0.0
06/01:00pm NNW 12 16 - - - - 10 Partly cloudy - 30.9 1006.6 0.0
06/12:30pm NNW 12 16 - - - - 10 Partly cloudy - 30.7 1006.8 0.0
06/12:00pm NNW 9 14 - - - - 10 Cloudy - 31.3 1007.1 0.0
06/11:30am NNW 7 10 - - - - 10 Partly cloudy - 30.8 1007.2 0.0
06/11:00am NW 8 11 - - - - 10 Partly cloudy - 30.8 1007.3 0.0
06/10:30am NW 7 8 - - - - 10 Partly cloudy - 31.4 1007.4 0.0
06/10:00am ESE 3 5 - - - - 10 Partly cloudy - 30.8 1007.5 0.0
06/09:30am ESE 5 7 - - - - 10 - - 31.0 1007.4 0.0
06/09:00am ESE 5 7 - - - - 10 - - 30.3 1007.3 0.0
06/08:30am ESE 6 8 - - - - 10 - - 29.5 1007.3 0.0
06/08:00am ESE 6 7 - - - - 10 Partly cloudy - 28.4 1007.2 0.0
06/07:30am S 2 4 - - - - 10 Partly cloudy - 27.8 1006.9 0.0
06/07:00am S 3 5 - - - - 10 Partly cloudy - 26.7 1006.6 0.0
06/06:30am S 3 4 - - - - 10 Cloudy - 26.7 1006.4 0.0
06/06:00am S 3 4 - - - - 10 Cloudy - 26.7 1005.9 0.0
06/05:30am S 3 5 - - - - 10 Partly cloudy - 27.0 1005.6 0.0
06/05:00am S 4 6 - - - - 10 Partly cloudy - 27.0 1005.5 0.0
06/04:30am CALM 0 0 - - - - 10 Partly cloudy - 27.3 1005.4 0.0
06/04:00am CALM 0 0 - - - - 10 Partly cloudy - 26.9 1005.2 0.0
06/03:30am CALM 0 0 - - - - 10 Cloudy - 27.1 1005.2 0.0
06/03:00am CALM 0 2 - - - - 10 Cloudy - 26.9 1005.2 0.0
06/02:30am SSW 4 5 - - - - 10 - - 27.2 1005.1 0.0
06/02:00am CALM 0 0 - - - - 10 Partly cloudy - 26.8 1005.3 0.0
06/01:30am CALM 0 0 - - - - 10 Partly cloudy - 26.9 1005.7 0.0
06/01:00am CALM 0 0 - - - - 10 Partly cloudy - 27.1 1005.6 0.0
06/12:30am SSW 4 6 - - - - 10 - - 28.0 1005.9 0.0
06/12:00am SSW 4 5 - - - - 10 Mostly cloudy - 28.1 1006.2 0.0
 
Date/Time
EST
Wind Sea
Height
m
Swell Vis
km
Cloud Weather Temp
°C
Press
MSL
hPa
Rain since
9am
mm
Dir  Spd
kts
Gust
kts
Height
m
Period
s
Dir
05/11:30pm SSW 4 5 - - - - 10 - - 28.3 1006.5 0.0
05/11:00pm SSW 3 4 - - - - 10 - - 28.3 1006.4 0.0
05/10:30pm SSW 5 7 - - - - 10 - - 28.7 1006.4 0.0
05/10:00pm SE 4 6 - - - - 10 - - 28.7 1006.1 0.0
05/09:30pm SE 4 5 - - - - 10 - - 28.7 1005.9 0.0
05/09:00pm SE 4 5 - - - - 10 Mostly cloudy - 28.7 1005.7 0.0
05/08:30pm SE 3 4 - - - - 10 - - 29.1 1005.3 0.0
05/08:00pm CALM 0 0 - - - - 10 - - 29.5 1005.2 0.0
05/07:30pm CALM 0 0 - - - - 10 - - 30.1 1004.8 0.0
05/07:00pm SE 3 4 - - - - 10 - - 30.5 1004.5 0.0
05/06:30pm SE 4 6 - - - - 10 - - 30.4 1004.2 0.0
05/06:00pm SE 6 7 - - - - 10 Mostly cloudy - 30.5 1003.9 0.0
05/05:30pm SE 7 9 - - - - 10 - - 30.7 1003.7 0.0
05/05:00pm SE 6 9 - - - - 10 - - 31.5 1003.8 0.0

Other formats

Comma delimited format used in spreadsheet applications
http://www.bom.gov.au/fwo/IDQ60701/IDQ60701.94254.axf

JavaScript Object Notation format (JSON) in row-major order
http://www.bom.gov.au/fwo/IDQ60701/IDQ60701.94254.json

Data quality

Most of these data are generated automatically and are frequently updated. Quality checks on data are not normally performed. It is possible for incorrect values to appear. Refer to information at About Latest Weather Observations and please check the disclaimer before using these data.